sensor_id;sensor_type;location;lat;lon;timestamp;P1;durP1;ratioP1;P2;durP2;ratioP2
41221;SDS011;26952;42.884;23.918;2023-04-03T00:00:12;5.95;;;5.65;;
41221;SDS011;26952;42.884;23.918;2023-04-03T00:02:38;6.65;;;6.32;;
41221;SDS011;26952;42.884;23.918;2023-04-03T00:05:03;7.50;;;7.15;;
41221;SDS011;26952;42.884;23.918;2023-04-03T00:07:29;6.75;;;6.43;;
41221;SDS011;26952;42.884;23.918;2023-04-03T00:09:55;6.57;;;6.28;;
41221;SDS011;26952;42.884;23.918;2023-04-03T00:12:20;5.93;;;5.68;;
41221;SDS011;26952;42.884;23.918;2023-04-03T00:14:46;6.05;;;5.75;;
41221;SDS011;26952;42.884;23.918;2023-04-03T00:17:11;6.43;;;6.13;;
41221;SDS011;26952;42.884;23.918;2023-04-03T00:19:36;6.70;;;6.40;;
41221;SDS011;26952;42.884;23.918;2023-04-03T00:22:02;7.72;;;7.18;;
41221;SDS011;26952;42.884;23.918;2023-04-03T00:24:27;7.03;;;6.72;;
41221;SDS011;26952;42.884;23.918;2023-04-03T00:26:53;6.22;;;5.95;;
41221;SDS011;26952;42.884;23.918;2023-04-03T00:29:18;6.45;;;5.95;;
41221;SDS011;26952;42.884;23.918;2023-04-03T00:31:43;5.80;;;5.57;;
41221;SDS011;26952;42.884;23.918;2023-04-03T00:34:09;5.47;;;5.22;;
41221;SDS011;26952;42.884;23.918;2023-04-03T00:36:35;5.68;;;5.35;;
41221;SDS011;26952;42.884;23.918;2023-04-03T00:39:00;5.43;;;5.13;;
41221;SDS011;26952;42.884;23.918;2023-04-03T00:41:25;6.15;;;5.85;;
41221;SDS011;26952;42.884;23.918;2023-04-03T00:43:51;5.95;;;5.68;;
41221;SDS011;26952;42.884;23.918;2023-04-03T00:46:17;5.95;;;5.65;;
41221;SDS011;26952;42.884;23.918;2023-04-03T00:48:44;5.18;;;4.95;;
41221;SDS011;26952;42.884;23.918;2023-04-03T00:51:13;5.22;;;4.97;;
41221;SDS011;26952;42.884;23.918;2023-04-03T00:53:48;6.03;;;5.72;;
41221;SDS011;26952;42.884;23.918;2023-04-03T00:56:18;5.65;;;5.35;;
41221;SDS011;26952;42.884;23.918;2023-04-03T00:58:48;6.63;;;6.32;;
41221;SDS011;26952;42.884;23.918;2023-04-03T01:01:24;5.45;;;5.15;;
41221;SDS011;26952;42.884;23.918;2023-04-03T01:03:51;4.72;;;4.53;;
41221;SDS011;26952;42.884;23.918;2023-04-03T01:06:17;4.63;;;4.43;;
41221;SDS011;26952;42.884;23.918;2023-04-03T01:08:48;4.30;;;4.10;;
41221;SDS011;26952;42.884;23.918;2023-04-03T01:11:15;4.60;;;4.40;;
41221;SDS011;26952;42.884;23.918;2023-04-03T01:13:41;4.57;;;4.35;;
41221;SDS011;26952;42.884;23.918;2023-04-03T01:16:06;5.70;;;5.43;;
41221;SDS011;26952;42.884;23.918;2023-04-03T01:18:33;6.30;;;6.03;;
41221;SDS011;26952;42.884;23.918;2023-04-03T01:26:21;6.60;;;6.25;;
41221;SDS011;26952;42.884;23.918;2023-04-03T01:28:47;6.97;;;6.47;;
41221;SDS011;26952;42.884;23.918;2023-04-03T01:31:25;6.65;;;6.25;;
41221;SDS011;26952;42.884;23.918;2023-04-03T01:33:56;5.15;;;4.85;;
41221;SDS011;26952;42.884;23.918;2023-04-03T01:36:23;5.65;;;5.25;;
41221;SDS011;26952;42.884;23.918;2023-04-03T01:38:52;5.40;;;5.10;;
41221;SDS011;26952;42.884;23.918;2023-04-03T01:41:18;5.55;;;5.05;;
41221;SDS011;26952;42.884;23.918;2023-04-03T01:43:43;5.95;;;4.63;;
41221;SDS011;26952;42.884;23.918;2023-04-03T01:46:09;5.40;;;5.00;;
41221;SDS011;26952;42.884;23.918;2023-04-03T01:48:34;5.18;;;4.93;;
41221;SDS011;26952;42.884;23.918;2023-04-03T01:51:00;3.67;;;3.47;;
41221;SDS011;26952;42.884;23.918;2023-04-03T01:53:25;4.18;;;3.85;;
41221;SDS011;26952;42.884;23.918;2023-04-03T01:55:50;5.38;;;4.97;;
41221;SDS011;26952;42.884;23.918;2023-04-03T01:58:16;5.32;;;5.03;;
41221;SDS011;26952;42.884;23.918;2023-04-03T02:00:41;5.97;;;5.65;;
41221;SDS011;26952;42.884;23.918;2023-04-03T02:03:07;5.22;;;4.93;;
41221;SDS011;26952;42.884;23.918;2023-04-03T02:05:33;6.22;;;5.93;;
41221;SDS011;26952;42.884;23.918;2023-04-03T02:07:58;6.28;;;5.97;;
41221;SDS011;26952;42.884;23.918;2023-04-03T02:10:23;6.35;;;6.05;;
41221;SDS011;26952;42.884;23.918;2023-04-03T02:12:49;7.07;;;6.78;;
41221;SDS011;26952;42.884;23.918;2023-04-03T02:15:15;5.80;;;5.53;;
41221;SDS011;26952;42.884;23.918;2023-04-03T02:17:41;5.70;;;5.30;;
41221;SDS011;26952;42.884;23.918;2023-04-03T02:20:06;5.25;;;4.95;;
41221;SDS011;26952;42.884;23.918;2023-04-03T02:22:33;4.28;;;3.97;;
41221;SDS011;26952;42.884;23.918;2023-04-03T02:24:58;3.80;;;3.60;;
41221;SDS011;26952;42.884;23.918;2023-04-03T02:27:24;3.88;;;3.22;;
41221;SDS011;26952;42.884;23.918;2023-04-03T02:29:49;3.78;;;3.10;;
41221;SDS011;26952;42.884;23.918;2023-04-03T02:32:15;3.60;;;3.30;;
41221;SDS011;26952;42.884;23.918;2023-04-03T02:34:40;3.65;;;3.45;;
41221;SDS011;26952;42.884;23.918;2023-04-03T02:37:05;3.40;;;3.17;;
41221;SDS011;26952;42.884;23.918;2023-04-03T02:39:31;2.45;;;2.35;;
41221;SDS011;26952;42.884;23.918;2023-04-03T02:41:56;3.05;;;2.85;;
41221;SDS011;26952;42.884;23.918;2023-04-03T02:44:22;2.95;;;2.75;;
41221;SDS011;26952;42.884;23.918;2023-04-03T02:46:48;2.63;;;2.42;;
41221;SDS011;26952;42.884;23.918;2023-04-03T02:49:14;2.58;;;2.45;;
41221;SDS011;26952;42.884;23.918;2023-04-03T02:51:40;2.97;;;2.78;;
41221;SDS011;26952;42.884;23.918;2023-04-03T02:54:06;3.97;;;3.17;;
41221;SDS011;26952;42.884;23.918;2023-04-03T02:56:31;3.22;;;3.03;;
41221;SDS011;26952;42.884;23.918;2023-04-03T02:58:56;4.68;;;2.60;;
41221;SDS011;26952;42.884;23.918;2023-04-03T03:01:22;2.97;;;2.78;;
41221;SDS011;26952;42.884;23.918;2023-04-03T03:03:47;2.28;;;2.13;;
41221;SDS011;26952;42.884;23.918;2023-04-03T03:06:14;2.42;;;2.33;;
41221;SDS011;26952;42.884;23.918;2023-04-03T03:08:41;2.33;;;2.22;;
41221;SDS011;26952;42.884;23.918;2023-04-03T03:11:07;2.25;;;2.13;;
41221;SDS011;26952;42.884;23.918;2023-04-03T03:13:33;2.45;;;2.25;;
41221;SDS011;26952;42.884;23.918;2023-04-03T03:15:58;2.38;;;2.28;;
41221;SDS011;26952;42.884;23.918;2023-04-03T03:18:24;2.97;;;2.22;;
41221;SDS011;26952;42.884;23.918;2023-04-03T03:20:53;2.70;;;2.50;;
41221;SDS011;26952;42.884;23.918;2023-04-03T03:23:21;2.60;;;2.40;;
41221;SDS011;26952;42.884;23.918;2023-04-03T03:25:48;2.67;;;2.58;;
41221;SDS011;26952;42.884;23.918;2023-04-03T03:28:13;4.22;;;4.03;;
41221;SDS011;26952;42.884;23.918;2023-04-03T03:30:39;5.72;;;5.43;;
41221;SDS011;26952;42.884;23.918;2023-04-03T03:33:05;7.43;;;6.95;;
41221;SDS011;26952;42.884;23.918;2023-04-03T03:35:30;8.45;;;7.95;;
41221;SDS011;26952;42.884;23.918;2023-04-03T03:37:56;8.98;;;8.57;;
41221;SDS011;26952;42.884;23.918;2023-04-03T03:40:21;9.32;;;8.82;;
41221;SDS011;26952;42.884;23.918;2023-04-03T03:42:47;8.38;;;7.88;;
41221;SDS011;26952;42.884;23.918;2023-04-03T03:45:13;8.57;;;8.18;;
41221;SDS011;26952;42.884;23.918;2023-04-03T03:47:39;7.82;;;7.43;;
41221;SDS011;26952;42.884;23.918;2023-04-03T03:50:05;8.75;;;8.35;;
41221;SDS011;26952;42.884;23.918;2023-04-03T03:52:31;9.23;;;8.75;;
41221;SDS011;26952;42.884;23.918;2023-04-03T03:54:56;7.72;;;7.35;;
41221;SDS011;26952;42.884;23.918;2023-04-03T03:57:22;9.45;;;9.00;;
41221;SDS011;26952;42.884;23.918;2023-04-03T03:59:47;9.18;;;8.68;;
41221;SDS011;26952;42.884;23.918;2023-04-03T04:02:14;7.97;;;7.47;;
41221;SDS011;26952;42.884;23.918;2023-04-03T04:04:40;7.18;;;6.80;;
41221;SDS011;26952;42.884;23.918;2023-04-03T04:07:05;7.32;;;6.90;;
41221;SDS011;26952;42.884;23.918;2023-04-03T04:09:31;7.32;;;6.68;;
41221;SDS011;26952;42.884;23.918;2023-04-03T04:11:56;6.18;;;5.88;;
41221;SDS011;26952;42.884;23.918;2023-04-03T04:14:21;5.63;;;5.32;;
41221;SDS011;26952;42.884;23.918;2023-04-03T04:16:47;4.80;;;4.53;;
41221;SDS011;26952;42.884;23.918;2023-04-03T04:19:13;5.18;;;4.88;;
41221;SDS011;26952;42.884;23.918;2023-04-03T04:21:38;5.25;;;4.95;;
41221;SDS011;26952;42.884;23.918;2023-04-03T04:24:04;5.07;;;4.78;;
41221;SDS011;26952;42.884;23.918;2023-04-03T04:26:30;4.15;;;3.72;;
41221;SDS011;26952;42.884;23.918;2023-04-03T04:28:55;4.72;;;4.43;;
41221;SDS011;26952;42.884;23.918;2023-04-03T04:31:21;4.20;;;3.90;;
41221;SDS011;26952;42.884;23.918;2023-04-03T04:33:46;4.53;;;4.32;;
41221;SDS011;26952;42.884;23.918;2023-04-03T04:36:11;3.92;;;3.72;;
41221;SDS011;26952;42.884;23.918;2023-04-03T04:38:37;4.13;;;3.92;;
41221;SDS011;26952;42.884;23.918;2023-04-03T04:41:03;4.38;;;4.07;;
41221;SDS011;26952;42.884;23.918;2023-04-03T04:43:29;4.55;;;4.35;;
41221;SDS011;26952;42.884;23.918;2023-04-03T04:46:01;4.75;;;4.30;;
41221;SDS011;26952;42.884;23.918;2023-04-03T04:48:27;3.97;;;3.78;;
41221;SDS011;26952;42.884;23.918;2023-04-03T04:50:53;4.00;;;3.80;;
41221;SDS011;26952;42.884;23.918;2023-04-03T04:53:18;4.75;;;4.35;;
41221;SDS011;26952;42.884;23.918;2023-04-03T04:55:44;5.10;;;4.72;;
41221;SDS011;26952;42.884;23.918;2023-04-03T04:58:09;4.60;;;4.30;;
41221;SDS011;26952;42.884;23.918;2023-04-03T05:00:35;5.65;;;5.35;;
41221;SDS011;26952;42.884;23.918;2023-04-03T05:03:00;6.20;;;5.53;;
41221;SDS011;26952;42.884;23.918;2023-04-03T05:05:26;6.20;;;5.90;;
41221;SDS011;26952;42.884;23.918;2023-04-03T05:07:51;5.50;;;5.22;;
41221;SDS011;26952;42.884;23.918;2023-04-03T05:10:16;5.55;;;5.25;;
41221;SDS011;26952;42.884;23.918;2023-04-03T05:12:42;7.20;;;5.30;;
41221;SDS011;26952;42.884;23.918;2023-04-03T05:15:07;6.20;;;5.70;;
41221;SDS011;26952;42.884;23.918;2023-04-03T05:17:33;9.35;;;5.07;;
41221;SDS011;26952;42.884;23.918;2023-04-03T05:19:59;3.95;;;3.67;;
41221;SDS011;26952;42.884;23.918;2023-04-03T05:22:24;4.03;;;3.50;;
41221;SDS011;26952;42.884;23.918;2023-04-03T05:24:50;3.83;;;3.63;;
41221;SDS011;26952;42.884;23.918;2023-04-03T05:27:15;3.83;;;3.53;;
41221;SDS011;26952;42.884;23.918;2023-04-03T05:29:41;3.58;;;3.38;;
41221;SDS011;26952;42.884;23.918;2023-04-03T05:32:08;4.38;;;4.07;;
41221;SDS011;26952;42.884;23.918;2023-04-03T05:34:34;5.20;;;4.85;;
41221;SDS011;26952;42.884;23.918;2023-04-03T05:37:00;5.20;;;4.80;;
41221;SDS011;26952;42.884;23.918;2023-04-03T05:39:28;6.13;;;5.72;;
41221;SDS011;26952;42.884;23.918;2023-04-03T05:41:53;6.30;;;5.90;;
41221;SDS011;26952;42.884;23.918;2023-04-03T05:44:19;13.80;;;12.55;;
41221;SDS011;26952;42.884;23.918;2023-04-03T05:46:44;29.27;;;25.95;;
41221;SDS011;26952;42.884;23.918;2023-04-03T05:49:10;9.35;;;8.75;;
41221;SDS011;26952;42.884;23.918;2023-04-03T05:51:36;8.32;;;7.63;;
41221;SDS011;26952;42.884;23.918;2023-04-03T05:54:24;7.47;;;6.95;;
41221;SDS011;26952;42.884;23.918;2023-04-03T05:56:52;6.38;;;5.88;;
41221;SDS011;26952;42.884;23.918;2023-04-03T05:59:18;6.10;;;5.50;;
41221;SDS011;26952;42.884;23.918;2023-04-03T06:01:45;7.18;;;6.57;;
41221;SDS011;26952;42.884;23.918;2023-04-03T06:04:10;7.85;;;7.05;;
41221;SDS011;26952;42.884;23.918;2023-04-03T06:06:47;8.48;;;7.68;;
41221;SDS011;26952;42.884;23.918;2023-04-03T06:09:21;8.85;;;7.95;;
41221;SDS011;26952;42.884;23.918;2023-04-03T06:11:50;8.70;;;8.00;;
41221;SDS011;26952;42.884;23.918;2023-04-03T06:14:16;13.55;;;12.50;;
41221;SDS011;26952;42.884;23.918;2023-04-03T06:16:42;19.10;;;17.92;;
41221;SDS011;26952;42.884;23.918;2023-04-03T06:19:08;24.80;;;23.27;;
41221;SDS011;26952;42.884;23.918;2023-04-03T06:21:34;26.30;;;24.30;;
41221;SDS011;26952;42.884;23.918;2023-04-03T06:24:01;28.75;;;26.45;;
41221;SDS011;26952;42.884;23.918;2023-04-03T06:26:27;28.88;;;26.33;;
41221;SDS011;26952;42.884;23.918;2023-04-03T06:28:53;29.55;;;27.05;;
41221;SDS011;26952;42.884;23.918;2023-04-03T06:31:19;29.00;;;26.20;;
41221;SDS011;26952;42.884;23.918;2023-04-03T06:33:44;29.92;;;27.00;;
41221;SDS011;26952;42.884;23.918;2023-04-03T06:36:10;27.92;;;25.38;;
41221;SDS011;26952;42.884;23.918;2023-04-03T06:38:37;29.48;;;26.42;;
41221;SDS011;26952;42.884;23.918;2023-04-03T06:41:02;23.98;;;21.88;;
41221;SDS011;26952;42.884;23.918;2023-04-03T06:43:28;24.00;;;21.73;;
41221;SDS011;26952;42.884;23.918;2023-04-03T06:45:53;16.98;;;15.38;;
41221;SDS011;26952;42.884;23.918;2023-04-03T06:48:19;18.60;;;16.75;;
41221;SDS011;26952;42.884;23.918;2023-04-03T06:50:44;17.85;;;16.10;;
41221;SDS011;26952;42.884;23.918;2023-04-03T06:53:10;20.23;;;18.23;;
41221;SDS011;26952;42.884;23.918;2023-04-03T06:55:35;19.25;;;17.17;;
41221;SDS011;26952;42.884;23.918;2023-04-03T06:58:02;19.77;;;16.67;;
41221;SDS011;26952;42.884;23.918;2023-04-03T07:00:30;17.45;;;15.73;;
41221;SDS011;26952;42.884;23.918;2023-04-03T07:02:56;17.52;;;15.80;;
41221;SDS011;26952;42.884;23.918;2023-04-03T07:05:23;17.60;;;15.90;;
41221;SDS011;26952;42.884;23.918;2023-04-03T07:07:51;18.05;;;15.95;;
41221;SDS011;26952;42.884;23.918;2023-04-03T07:10:17;17.25;;;15.77;;
41221;SDS011;26952;42.884;23.918;2023-04-03T07:12:43;17.15;;;15.57;;
41221;SDS011;26952;42.884;23.918;2023-04-03T07:15:09;20.40;;;18.80;;
41221;SDS011;26952;42.884;23.918;2023-04-03T07:17:35;17.70;;;16.50;;
41221;SDS011;26952;42.884;23.918;2023-04-03T07:20:09;14.38;;;13.38;;
41221;SDS011;26952;42.884;23.918;2023-04-03T07:22:40;10.77;;;9.98;;
41221;SDS011;26952;42.884;23.918;2023-04-03T07:25:08;12.10;;;11.07;;
41221;SDS011;26952;42.884;23.918;2023-04-03T07:27:37;11.90;;;10.75;;
41221;SDS011;26952;42.884;23.918;2023-04-03T07:30:05;10.95;;;9.95;;
41221;SDS011;26952;42.884;23.918;2023-04-03T07:32:36;14.63;;;13.63;;
41221;SDS011;26952;42.884;23.918;2023-04-03T07:35:08;17.48;;;16.27;;
41221;SDS011;26952;42.884;23.918;2023-04-03T07:37:40;22.15;;;20.73;;
41221;SDS011;26952;42.884;23.918;2023-04-03T07:40:07;24.65;;;23.05;;
41221;SDS011;26952;42.884;23.918;2023-04-03T07:42:39;23.98;;;22.10;;
41221;SDS011;26952;42.884;23.918;2023-04-03T07:45:12;23.08;;;21.58;;
41221;SDS011;26952;42.884;23.918;2023-04-03T07:47:37;21.15;;;19.23;;
41221;SDS011;26952;42.884;23.918;2023-04-03T07:50:06;25.05;;;23.45;;
41221;SDS011;26952;42.884;23.918;2023-04-03T07:52:34;28.60;;;26.83;;
41221;SDS011;26952;42.884;23.918;2023-04-03T07:55:02;29.65;;;27.83;;
41221;SDS011;26952;42.884;23.918;2023-04-03T07:57:31;25.63;;;23.70;;
41221;SDS011;26952;42.884;23.918;2023-04-03T07:59:56;27.35;;;25.25;;
41221;SDS011;26952;42.884;23.918;2023-04-03T08:02:21;25.88;;;24.10;;
41221;SDS011;26952;42.884;23.918;2023-04-03T08:04:47;26.35;;;24.63;;
41221;SDS011;26952;42.884;23.918;2023-04-03T08:07:12;31.48;;;29.42;;
41221;SDS011;26952;42.884;23.918;2023-04-03T08:09:37;34.13;;;31.83;;
41221;SDS011;26952;42.884;23.918;2023-04-03T08:12:03;29.40;;;27.23;;
41221;SDS011;26952;42.884;23.918;2023-04-03T08:14:30;32.00;;;29.77;;
41221;SDS011;26952;42.884;23.918;2023-04-03T08:16:59;32.00;;;29.80;;
41221;SDS011;26952;42.884;23.918;2023-04-03T08:19:25;21.90;;;20.30;;
41221;SDS011;26952;42.884;23.918;2023-04-03T08:21:51;20.10;;;18.60;;
41221;SDS011;26952;42.884;23.918;2023-04-03T08:24:18;16.42;;;14.93;;
41221;SDS011;26952;42.884;23.918;2023-04-03T08:26:43;20.65;;;19.05;;
41221;SDS011;26952;42.884;23.918;2023-04-03T08:29:08;27.85;;;26.27;;
41221;SDS011;26952;42.884;23.918;2023-04-03T08:31:34;18.15;;;16.88;;
41221;SDS011;26952;42.884;23.918;2023-04-03T08:33:59;14.80;;;13.95;;
41221;SDS011;26952;42.884;23.918;2023-04-03T08:36:26;18.88;;;17.67;;
41221;SDS011;26952;42.884;23.918;2023-04-03T08:38:53;18.38;;;17.27;;
41221;SDS011;26952;42.884;23.918;2023-04-03T08:41:24;40.25;;;38.22;;
41221;SDS011;26952;42.884;23.918;2023-04-03T08:49:44;41.50;;;39.30;;
41221;SDS011;26952;42.884;23.918;2023-04-03T08:52:20;39.50;;;37.50;;
41221;SDS011;26952;42.884;23.918;2023-04-03T08:57:14;30.77;;;29.27;;
41221;SDS011;26952;42.884;23.918;2023-04-03T08:59:41;19.77;;;18.77;;
41221;SDS011;26952;42.884;23.918;2023-04-03T09:04:58;18.00;;;17.05;;
41221;SDS011;26952;42.884;23.918;2023-04-03T09:07:35;14.45;;;13.75;;
41221;SDS011;26952;42.884;23.918;2023-04-03T09:10:07;18.92;;;18.08;;
41221;SDS011;26952;42.884;23.918;2023-04-03T09:12:38;25.85;;;24.65;;
41221;SDS011;26952;42.884;23.918;2023-04-03T09:15:17;18.08;;;17.27;;
41221;SDS011;26952;42.884;23.918;2023-04-03T09:17:53;10.98;;;10.48;;
41221;SDS011;26952;42.884;23.918;2023-04-03T09:20:43;11.20;;;10.60;;
41221;SDS011;26952;42.884;23.918;2023-04-03T09:23:26;13.93;;;13.27;;
41221;SDS011;26952;42.884;23.918;2023-04-03T09:26:13;17.15;;;16.33;;
41221;SDS011;26952;42.884;23.918;2023-04-03T09:28:42;30.67;;;29.17;;
41221;SDS011;26952;42.884;23.918;2023-04-03T09:31:14;20.10;;;19.20;;
41221;SDS011;26952;42.884;23.918;2023-04-03T09:33:41;17.58;;;16.77;;
41221;SDS011;26952;42.884;23.918;2023-04-03T09:36:07;14.68;;;14.00;;
41221;SDS011;26952;42.884;23.918;2023-04-03T09:38:32;15.18;;;14.40;;
41221;SDS011;26952;42.884;23.918;2023-04-03T09:41:06;12.75;;;12.15;;
41221;SDS011;26952;42.884;23.918;2023-04-03T09:43:38;12.80;;;12.13;;
41221;SDS011;26952;42.884;23.918;2023-04-03T09:48:59;8.70;;;8.30;;
41221;SDS011;26952;42.884;23.918;2023-04-03T09:51:29;9.85;;;9.43;;
41221;SDS011;26952;42.884;23.918;2023-04-03T09:53:56;11.82;;;11.23;;
41221;SDS011;26952;42.884;23.918;2023-04-03T09:56:23;14.30;;;13.60;;
41221;SDS011;26952;42.884;23.918;2023-04-03T10:04:08;16.20;;;15.45;;
41221;SDS011;26952;42.884;23.918;2023-04-03T10:06:40;18.98;;;18.10;;
41221;SDS011;26952;42.884;23.918;2023-04-03T10:11:58;21.58;;;20.55;;
41221;SDS011;26952;42.884;23.918;2023-04-03T10:14:30;25.65;;;24.48;;
41221;SDS011;26952;42.884;23.918;2023-04-03T10:22:08;23.25;;;22.15;;
41221;SDS011;26952;42.884;23.918;2023-04-03T10:25:01;22.33;;;21.23;;
41221;SDS011;26952;42.884;23.918;2023-04-03T10:35:51;28.48;;;27.15;;
41221;SDS011;26952;42.884;23.918;2023-04-03T10:47:08;28.77;;;27.38;;
41221;SDS011;26952;42.884;23.918;2023-04-03T10:50:15;26.50;;;25.27;;
41221;SDS011;26952;42.884;23.918;2023-04-03T10:53:01;19.23;;;18.35;;
41221;SDS011;26952;42.884;23.918;2023-04-03T10:55:40;20.13;;;19.23;;
41221;SDS011;26952;42.884;23.918;2023-04-03T10:58:21;26.38;;;25.15;;
41221;SDS011;26952;42.884;23.918;2023-04-03T11:00:53;28.38;;;27.02;;
41221;SDS011;26952;42.884;23.918;2023-04-03T11:03:29;29.27;;;27.95;;
41221;SDS011;26952;42.884;23.918;2023-04-03T11:05:59;31.70;;;30.17;;
41221;SDS011;26952;42.884;23.918;2023-04-03T11:08:35;30.80;;;29.33;;
41221;SDS011;26952;42.884;23.918;2023-04-03T11:11:29;28.38;;;27.08;;
41221;SDS011;26952;42.884;23.918;2023-04-03T11:16:36;23.48;;;22.38;;
41221;SDS011;26952;42.884;23.918;2023-04-03T11:21:42;23.50;;;22.38;;
41221;SDS011;26952;42.884;23.918;2023-04-03T11:24:16;23.88;;;22.70;;
41221;SDS011;26952;42.884;23.918;2023-04-03T11:26:47;26.52;;;25.35;;
41221;SDS011;26952;42.884;23.918;2023-04-03T11:29:17;26.45;;;25.15;;
41221;SDS011;26952;42.884;23.918;2023-04-03T11:34:37;24.20;;;23.00;;
41221;SDS011;26952;42.884;23.918;2023-04-03T11:38:06;22.08;;;21.00;;
41221;SDS011;26952;42.884;23.918;2023-04-03T11:40:07;21.77;;;20.77;;
41221;SDS011;26952;42.884;23.918;2023-04-03T11:42:55;22.65;;;21.65;;
41221;SDS011;26952;42.884;23.918;2023-04-03T11:45:34;24.52;;;23.40;;
41221;SDS011;26952;42.884;23.918;2023-04-03T11:48:45;20.45;;;19.55;;
41221;SDS011;26952;42.884;23.918;2023-04-03T11:50:54;14.05;;;13.05;;
41221;SDS011;26952;42.884;23.918;2023-04-03T11:53:54;15.82;;;15.07;;
41221;SDS011;26952;42.884;23.918;2023-04-03T12:01:43;27.02;;;25.75;;
41221;SDS011;26952;42.884;23.918;2023-04-03T12:04:11;57.28;;;54.38;;
41221;SDS011;26952;42.884;23.918;2023-04-03T12:06:42;54.92;;;52.03;;
41221;SDS011;26952;42.884;23.918;2023-04-03T12:09:25;35.22;;;33.50;;
41221;SDS011;26952;42.884;23.918;2023-04-03T12:15:24;34.72;;;33.10;;
41221;SDS011;26952;42.884;23.918;2023-04-03T12:21:07;16.90;;;16.00;;
41221;SDS011;26952;42.884;23.918;2023-04-03T12:23:58;7.32;;;6.72;;
41221;SDS011;26952;42.884;23.918;2023-04-03T12:29:37;11.82;;;11.27;;
41221;SDS011;26952;42.884;23.918;2023-04-03T12:32:16;19.88;;;18.92;;
41221;SDS011;26952;42.884;23.918;2023-04-03T12:46:47;12.27;;;11.68;;
41221;SDS011;26952;42.884;23.918;2023-04-03T12:54:53;12.27;;;11.60;;
41221;SDS011;26952;42.884;23.918;2023-04-03T12:59:54;7.95;;;7.57;;
41221;SDS011;26952;42.884;23.918;2023-04-03T13:02:27;8.48;;;8.05;;
41221;SDS011;26952;42.884;23.918;2023-04-03T13:04:56;6.05;;;5.75;;
41221;SDS011;26952;42.884;23.918;2023-04-03T13:07:34;4.40;;;4.10;;
41221;SDS011;26952;42.884;23.918;2023-04-03T13:12:33;3.97;;;3.78;;
41221;SDS011;26952;42.884;23.918;2023-04-03T13:15:00;4.43;;;4.13;;
41221;SDS011;26952;42.884;23.918;2023-04-03T13:17:41;7.50;;;7.00;;
41221;SDS011;26952;42.884;23.918;2023-04-03T13:20:50;9.65;;;9.15;;
41221;SDS011;26952;42.884;23.918;2023-04-03T13:25:30;4.68;;;4.47;;
41221;SDS011;26952;42.884;23.918;2023-04-03T13:27:59;9.00;;;8.40;;
41221;SDS011;26952;42.884;23.918;2023-04-03T13:30:30;11.27;;;10.70;;
41221;SDS011;26952;42.884;23.918;2023-04-03T13:33:00;14.25;;;13.45;;
41221;SDS011;26952;42.884;23.918;2023-04-03T13:35:32;12.87;;;12.07;;
41221;SDS011;26952;42.884;23.918;2023-04-03T13:38:03;13.63;;;12.93;;
41221;SDS011;26952;42.884;23.918;2023-04-03T13:40:51;13.07;;;12.38;;
41221;SDS011;26952;42.884;23.918;2023-04-03T13:43:21;19.42;;;18.42;;
41221;SDS011;26952;42.884;23.918;2023-04-03T13:45:54;28.42;;;26.92;;
41221;SDS011;26952;42.884;23.918;2023-04-03T13:48:22;33.50;;;31.50;;
41221;SDS011;26952;42.884;23.918;2023-04-03T13:50:53;33.28;;;31.50;;
41221;SDS011;26952;42.884;23.918;2023-04-03T13:53:22;28.35;;;26.92;;
41221;SDS011;26952;42.884;23.918;2023-04-03T13:58:31;18.50;;;17.60;;
41221;SDS011;26952;42.884;23.918;2023-04-03T14:06:13;15.77;;;14.98;;
41221;SDS011;26952;42.884;23.918;2023-04-03T14:08:41;16.23;;;15.43;;
41221;SDS011;26952;42.884;23.918;2023-04-03T14:11:15;15.75;;;14.95;;
41221;SDS011;26952;42.884;23.918;2023-04-03T14:13:43;14.43;;;13.55;;
41221;SDS011;26952;42.884;23.918;2023-04-03T14:16:20;14.63;;;13.90;;
41221;SDS011;26952;42.884;23.918;2023-04-03T14:18:48;16.23;;;15.43;;
41221;SDS011;26952;42.884;23.918;2023-04-03T14:21:15;16.10;;;15.20;;
41221;SDS011;26952;42.884;23.918;2023-04-03T14:23:41;18.80;;;17.88;;
41221;SDS011;26952;42.884;23.918;2023-04-03T14:26:14;19.38;;;18.38;;
41221;SDS011;26952;42.884;23.918;2023-04-03T14:28:43;20.63;;;19.58;;
41221;SDS011;26952;42.884;23.918;2023-04-03T14:31:10;20.70;;;19.67;;
41221;SDS011;26952;42.884;23.918;2023-04-03T14:33:36;19.42;;;18.33;;
41221;SDS011;26952;42.884;23.918;2023-04-03T14:36:05;19.20;;;18.23;;
41221;SDS011;26952;42.884;23.918;2023-04-03T14:38:38;22.38;;;21.25;;
41221;SDS011;26952;42.884;23.918;2023-04-03T14:41:03;18.15;;;17.25;;
41221;SDS011;26952;42.884;23.918;2023-04-03T14:43:29;20.20;;;19.20;;
41221;SDS011;26952;42.884;23.918;2023-04-03T14:45:54;21.45;;;20.45;;
41221;SDS011;26952;42.884;23.918;2023-04-03T14:48:24;22.27;;;21.13;;
41221;SDS011;26952;42.884;23.918;2023-04-03T14:50:51;21.55;;;20.55;;
41221;SDS011;26952;42.884;23.918;2023-04-03T14:53:18;21.10;;;20.02;;
41221;SDS011;26952;42.884;23.918;2023-04-03T14:55:47;20.67;;;19.37;;
41221;SDS011;26952;42.884;23.918;2023-04-03T14:58:15;21.58;;;20.30;;
41221;SDS011;26952;42.884;23.918;2023-04-03T15:00:42;20.05;;;19.00;;
41221;SDS011;26952;42.884;23.918;2023-04-03T15:03:18;17.55;;;16.63;;
41221;SDS011;26952;42.884;23.918;2023-04-03T15:05:46;16.20;;;15.45;;
41221;SDS011;26952;42.884;23.918;2023-04-03T15:08:19;17.08;;;16.23;;
41221;SDS011;26952;42.884;23.918;2023-04-03T15:10:49;18.10;;;17.20;;
41221;SDS011;26952;42.884;23.918;2023-04-03T15:13:15;19.75;;;18.83;;
41221;SDS011;26952;42.884;23.918;2023-04-03T15:15:40;21.83;;;20.58;;
41221;SDS011;26952;42.884;23.918;2023-04-03T15:18:06;21.75;;;20.65;;
41221;SDS011;26952;42.884;23.918;2023-04-03T15:20:35;20.65;;;19.55;;
41221;SDS011;26952;42.884;23.918;2023-04-03T15:23:01;21.58;;;20.40;;
41221;SDS011;26952;42.884;23.918;2023-04-03T15:25:27;21.35;;;20.25;;
41221;SDS011;26952;42.884;23.918;2023-04-03T15:27:56;21.00;;;19.80;;
41221;SDS011;26952;42.884;23.918;2023-04-03T15:30:22;15.70;;;14.85;;
41221;SDS011;26952;42.884;23.918;2023-04-03T15:32:48;19.52;;;18.15;;
41221;SDS011;26952;42.884;23.918;2023-04-03T15:35:14;18.10;;;17.20;;
41221;SDS011;26952;42.884;23.918;2023-04-03T15:37:40;17.50;;;16.42;;
41221;SDS011;26952;42.884;23.918;2023-04-03T15:40:06;15.95;;;15.07;;
41221;SDS011;26952;42.884;23.918;2023-04-03T15:42:32;15.38;;;14.48;;
41221;SDS011;26952;42.884;23.918;2023-04-03T15:44:58;15.80;;;14.85;;
41221;SDS011;26952;42.884;23.918;2023-04-03T15:47:24;16.60;;;15.70;;
41221;SDS011;26952;42.884;23.918;2023-04-03T15:49:51;17.05;;;16.15;;
41221;SDS011;26952;42.884;23.918;2023-04-03T15:52:18;17.83;;;16.75;;
41221;SDS011;26952;42.884;23.918;2023-04-03T15:54:43;17.73;;;16.83;;
41221;SDS011;26952;42.884;23.918;2023-04-03T15:57:09;17.10;;;16.10;;
41221;SDS011;26952;42.884;23.918;2023-04-03T15:59:34;16.23;;;15.35;;
41221;SDS011;26952;42.884;23.918;2023-04-03T16:01:59;15.90;;;14.90;;
41221;SDS011;26952;42.884;23.918;2023-04-03T16:04:28;16.50;;;15.40;;
41221;SDS011;26952;42.884;23.918;2023-04-03T16:06:54;19.35;;;18.05;;
41221;SDS011;26952;42.884;23.918;2023-04-03T16:09:20;17.02;;;16.13;;
41221;SDS011;26952;42.884;23.918;2023-04-03T16:11:46;16.63;;;15.73;;
41221;SDS011;26952;42.884;23.918;2023-04-03T16:14:11;15.02;;;14.23;;